sensor_id;sensor_type;location;lat;lon;timestamp;P1;durP1;ratioP1;P2;durP2;ratioP2
45316;SDS011;31053;55.870;37.592;2022-09-03T00:03:17;1.15;;;0.60;;
45316;SDS011;31053;55.870;37.592;2022-09-03T00:06:27;3.97;;;1.05;;
45316;SDS011;31053;55.870;37.592;2022-09-03T00:09:40;2.78;;;0.60;;
45316;SDS011;31053;55.870;37.592;2022-09-03T00:12:50;1.15;;;0.60;;
45316;SDS011;31053;55.870;37.592;2022-09-03T00:15:56;0.60;;;0.40;;
45316;SDS011;31053;55.870;37.592;2022-09-03T00:19:03;1.10;;;0.70;;
45316;SDS011;31053;55.870;37.592;2022-09-03T00:22:09;2.03;;;0.60;;
45316;SDS011;31053;55.870;37.592;2022-09-03T00:25:20;1.92;;;0.80;;
45316;SDS011;31053;55.870;37.592;2022-09-03T00:28:39;1.25;;;0.77;;
45316;SDS011;31053;55.870;37.592;2022-09-03T00:31:50;2.22;;;0.82;;
45316;SDS011;31053;55.870;37.592;2022-09-03T00:34:59;2.97;;;0.88;;
45316;SDS011;31053;55.870;37.592;2022-09-03T00:38:07;1.50;;;0.85;;
45316;SDS011;31053;55.870;37.592;2022-09-03T00:54:33;2.13;;;0.70;;
45316;SDS011;31053;55.870;37.592;2022-09-03T01:01:02;1.38;;;0.98;;
45316;SDS011;31053;55.870;37.592;2022-09-03T01:17:50;0.93;;;0.60;;
45316;SDS011;31053;55.870;37.592;2022-09-03T01:21:20;1.50;;;0.98;;
45316;SDS011;31053;55.870;37.592;2022-09-03T01:38:40;1.13;;;0.70;;
45316;SDS011;31053;55.870;37.592;2022-09-03T01:48:36;1.65;;;0.70;;
45316;SDS011;31053;55.870;37.592;2022-09-03T01:52:23;1.55;;;0.80;;
45316;SDS011;31053;55.870;37.592;2022-09-03T01:59:22;5.13;;;0.70;;
45316;SDS011;31053;55.870;37.592;2022-09-03T02:02:49;1.17;;;0.68;;
45316;SDS011;31053;55.870;37.592;2022-09-03T02:05:54;2.60;;;0.80;;
45316;SDS011;31053;55.870;37.592;2022-09-03T02:08:59;1.33;;;0.50;;
45316;SDS011;31053;55.870;37.592;2022-09-03T02:12:07;2.00;;;0.80;;
45316;SDS011;31053;55.870;37.592;2022-09-03T02:15:19;1.10;;;0.60;;
45316;SDS011;31053;55.870;37.592;2022-09-03T02:18:47;1.05;;;0.63;;
45316;SDS011;31053;55.870;37.592;2022-09-03T02:21:51;1.58;;;0.68;;
45316;SDS011;31053;55.870;37.592;2022-09-03T02:24:57;1.95;;;0.75;;
45316;SDS011;31053;55.870;37.592;2022-09-03T02:28:02;0.98;;;0.57;;
45316;SDS011;31053;55.870;37.592;2022-09-03T02:31:09;1.55;;;0.88;;
45316;SDS011;31053;55.870;37.592;2022-09-03T02:34:13;5.10;;;1.02;;
45316;SDS011;31053;55.870;37.592;2022-09-03T02:37:18;1.35;;;0.60;;
45316;SDS011;31053;55.870;37.592;2022-09-03T02:40:23;3.22;;;0.80;;
45316;SDS011;31053;55.870;37.592;2022-09-03T02:46:39;1.00;;;0.75;;
45316;SDS011;31053;55.870;37.592;2022-09-03T02:49:47;2.63;;;0.70;;
45316;SDS011;31053;55.870;37.592;2022-09-03T02:52:52;4.90;;;0.70;;
45316;SDS011;31053;55.870;37.592;2022-09-03T02:56:00;1.73;;;0.88;;
45316;SDS011;31053;55.870;37.592;2022-09-03T02:59:05;1.20;;;0.88;;
45316;SDS011;31053;55.870;37.592;2022-09-03T03:02:11;1.90;;;1.13;;
45316;SDS011;31053;55.870;37.592;2022-09-03T03:05:21;2.08;;;0.70;;
45316;SDS011;31053;55.870;37.592;2022-09-03T03:08:30;0.88;;;0.65;;
45316;SDS011;31053;55.870;37.592;2022-09-03T03:11:37;4.68;;;0.90;;
45316;SDS011;31053;55.870;37.592;2022-09-03T03:14:43;1.40;;;0.87;;
45316;SDS011;31053;55.870;37.592;2022-09-03T03:17:47;1.90;;;0.60;;
45316;SDS011;31053;55.870;37.592;2022-09-03T03:20:52;0.73;;;0.60;;
45316;SDS011;31053;55.870;37.592;2022-09-03T03:23:57;1.95;;;0.77;;
45316;SDS011;31053;55.870;37.592;2022-09-03T03:27:04;2.08;;;0.68;;
45316;SDS011;31053;55.870;37.592;2022-09-03T03:30:10;1.15;;;0.60;;
45316;SDS011;31053;55.870;37.592;2022-09-03T03:33:15;2.38;;;0.80;;
45316;SDS011;31053;55.870;37.592;2022-09-03T03:36:20;0.90;;;0.77;;
45316;SDS011;31053;55.870;37.592;2022-09-03T03:39:25;2.80;;;0.70;;
45316;SDS011;31053;55.870;37.592;2022-09-03T03:42:31;2.28;;;0.82;;
45316;SDS011;31053;55.870;37.592;2022-09-03T03:45:38;1.88;;;0.68;;
45316;SDS011;31053;55.870;37.592;2022-09-03T03:48:46;5.00;;;1.38;;
45316;SDS011;31053;55.870;37.592;2022-09-03T03:51:51;2.28;;;0.73;;
45316;SDS011;31053;55.870;37.592;2022-09-03T03:54:56;0.90;;;0.52;;
45316;SDS011;31053;55.870;37.592;2022-09-03T03:58:01;1.95;;;0.90;;
45316;SDS011;31053;55.870;37.592;2022-09-03T04:01:06;2.95;;;0.98;;
45316;SDS011;31053;55.870;37.592;2022-09-03T04:04:16;3.03;;;0.90;;
45316;SDS011;31053;55.870;37.592;2022-09-03T04:10:27;1.55;;;0.70;;
45316;SDS011;31053;55.870;37.592;2022-09-03T04:13:32;4.43;;;0.95;;
45316;SDS011;31053;55.870;37.592;2022-09-03T04:16:38;0.70;;;0.70;;
45316;SDS011;31053;55.870;37.592;2022-09-03T04:19:43;1.77;;;0.70;;
45316;SDS011;31053;55.870;37.592;2022-09-03T04:22:51;1.58;;;0.70;;
45316;SDS011;31053;55.870;37.592;2022-09-03T04:25:55;0.82;;;0.68;;
45316;SDS011;31053;55.870;37.592;2022-09-03T04:29:02;1.55;;;0.80;;
45316;SDS011;31053;55.870;37.592;2022-09-03T04:32:11;1.30;;;0.98;;
45316;SDS011;31053;55.870;37.592;2022-09-03T04:35:33;2.00;;;0.98;;
45316;SDS011;31053;55.870;37.592;2022-09-03T04:38:39;3.15;;;0.60;;
45316;SDS011;31053;55.870;37.592;2022-09-03T04:41:45;1.80;;;1.00;;
45316;SDS011;31053;55.870;37.592;2022-09-03T04:44:49;1.40;;;0.90;;
45316;SDS011;31053;55.870;37.592;2022-09-03T04:47:55;2.08;;;0.82;;
45316;SDS011;31053;55.870;37.592;2022-09-03T04:51:07;1.50;;;0.80;;
45316;SDS011;31053;55.870;37.592;2022-09-03T04:54:16;2.83;;;0.90;;
45316;SDS011;31053;55.870;37.592;2022-09-03T04:57:21;2.95;;;1.05;;
45316;SDS011;31053;55.870;37.592;2022-09-03T05:00:26;1.55;;;0.90;;
45316;SDS011;31053;55.870;37.592;2022-09-03T05:03:31;3.28;;;1.83;;
45316;SDS011;31053;55.870;37.592;2022-09-03T05:06:36;1.13;;;0.82;;
45316;SDS011;31053;55.870;37.592;2022-09-03T05:09:40;1.20;;;0.90;;
45316;SDS011;31053;55.870;37.592;2022-09-03T05:12:46;1.50;;;1.23;;
45316;SDS011;31053;55.870;37.592;2022-09-03T05:15:52;0.88;;;0.85;;
45316;SDS011;31053;55.870;37.592;2022-09-03T05:19:02;2.80;;;1.27;;
45316;SDS011;31053;55.870;37.592;2022-09-03T05:22:09;3.92;;;1.30;;
45316;SDS011;31053;55.870;37.592;2022-09-03T05:25:13;5.18;;;1.05;;
45316;SDS011;31053;55.870;37.592;2022-09-03T05:28:18;2.45;;;1.00;;
45316;SDS011;31053;55.870;37.592;2022-09-03T05:31:23;3.45;;;1.40;;
45316;SDS011;31053;55.870;37.592;2022-09-03T05:34:29;4.97;;;1.27;;
45316;SDS011;31053;55.870;37.592;2022-09-03T05:37:35;4.83;;;1.70;;
45316;SDS011;31053;55.870;37.592;2022-09-03T05:40:41;1.77;;;0.80;;
45316;SDS011;31053;55.870;37.592;2022-09-03T05:43:46;3.50;;;1.25;;
45316;SDS011;31053;55.870;37.592;2022-09-03T05:46:57;1.75;;;1.25;;
45316;SDS011;31053;55.870;37.592;2022-09-03T05:50:03;2.65;;;0.90;;
45316;SDS011;31053;55.870;37.592;2022-09-03T05:53:08;1.58;;;1.13;;
45316;SDS011;31053;55.870;37.592;2022-09-03T05:56:14;3.67;;;1.17;;
45316;SDS011;31053;55.870;37.592;2022-09-03T05:59:22;4.05;;;1.25;;
45316;SDS011;31053;55.870;37.592;2022-09-03T06:02:26;4.30;;;1.10;;
45316;SDS011;31053;55.870;37.592;2022-09-03T06:05:31;6.55;;;1.30;;
45316;SDS011;31053;55.870;37.592;2022-09-03T06:08:36;10.00;;;1.77;;
45316;SDS011;31053;55.870;37.592;2022-09-03T06:11:45;2.58;;;1.27;;
45316;SDS011;31053;55.870;37.592;2022-09-03T06:14:50;5.15;;;1.65;;
45316;SDS011;31053;55.870;37.592;2022-09-03T06:17:55;2.65;;;1.08;;
45316;SDS011;31053;55.870;37.592;2022-09-03T06:21:04;5.32;;;1.25;;
45316;SDS011;31053;55.870;37.592;2022-09-03T06:24:11;4.75;;;0.90;;
45316;SDS011;31053;55.870;37.592;2022-09-03T06:27:16;2.00;;;1.17;;
45316;SDS011;31053;55.870;37.592;2022-09-03T06:30:24;8.38;;;4.25;;
45316;SDS011;31053;55.870;37.592;2022-09-03T06:33:30;1.48;;;0.98;;
45316;SDS011;31053;55.870;37.592;2022-09-03T06:36:36;2.42;;;0.82;;
45316;SDS011;31053;55.870;37.592;2022-09-03T06:39:41;1.10;;;0.75;;
45316;SDS011;31053;55.870;37.592;2022-09-03T06:42:53;8.38;;;0.95;;
45316;SDS011;31053;55.870;37.592;2022-09-03T06:46:05;8.73;;;1.50;;
45316;SDS011;31053;55.870;37.592;2022-09-03T06:49:13;1.77;;;0.80;;
45316;SDS011;31053;55.870;37.592;2022-09-03T06:52:18;3.83;;;1.35;;
45316;SDS011;31053;55.870;37.592;2022-09-03T06:55:30;1.55;;;1.00;;
45316;SDS011;31053;55.870;37.592;2022-09-03T06:58:38;2.80;;;1.48;;
45316;SDS011;31053;55.870;37.592;2022-09-03T07:01:47;3.53;;;1.73;;
45316;SDS011;31053;55.870;37.592;2022-09-03T07:04:52;3.00;;;1.20;;
45316;SDS011;31053;55.870;37.592;2022-09-03T07:07:56;1.90;;;0.90;;
45316;SDS011;31053;55.870;37.592;2022-09-03T07:11:02;2.53;;;1.40;;
45316;SDS011;31053;55.870;37.592;2022-09-03T07:14:09;3.30;;;1.27;;
45316;SDS011;31053;55.870;37.592;2022-09-03T07:17:15;1.30;;;0.90;;
45316;SDS011;31053;55.870;37.592;2022-09-03T07:20:21;1.73;;;1.15;;
45316;SDS011;31053;55.870;37.592;2022-09-03T07:23:27;1.33;;;0.98;;
45316;SDS011;31053;55.870;37.592;2022-09-03T07:26:37;3.97;;;1.05;;
45316;SDS011;31053;55.870;37.592;2022-09-03T07:29:43;2.17;;;0.88;;
45316;SDS011;31053;55.870;37.592;2022-09-03T07:32:47;0.95;;;0.75;;
45316;SDS011;31053;55.870;37.592;2022-09-03T07:35:54;11.38;;;1.08;;
45316;SDS011;31053;55.870;37.592;2022-09-03T07:39:00;3.28;;;0.90;;
45316;SDS011;31053;55.870;37.592;2022-09-03T07:42:04;5.47;;;1.10;;
45316;SDS011;31053;55.870;37.592;2022-09-03T07:45:13;1.85;;;0.65;;
45316;SDS011;31053;55.870;37.592;2022-09-03T07:48:18;2.50;;;0.63;;
45316;SDS011;31053;55.870;37.592;2022-09-03T07:51:24;0.90;;;0.60;;
45316;SDS011;31053;55.870;37.592;2022-09-03T07:54:31;0.93;;;0.73;;
45316;SDS011;31053;55.870;37.592;2022-09-03T07:57:36;5.72;;;0.85;;
45316;SDS011;31053;55.870;37.592;2022-09-03T08:00:40;2.30;;;0.90;;
45316;SDS011;31053;55.870;37.592;2022-09-03T08:03:45;1.10;;;0.70;;
45316;SDS011;31053;55.870;37.592;2022-09-03T08:06:51;4.43;;;0.55;;
45316;SDS011;31053;55.870;37.592;2022-09-03T08:09:58;5.25;;;0.70;;
45316;SDS011;31053;55.870;37.592;2022-09-03T08:13:04;4.82;;;0.75;;
45316;SDS011;31053;55.870;37.592;2022-09-03T08:16:12;2.92;;;0.73;;
45316;SDS011;31053;55.870;37.592;2022-09-03T08:19:17;3.38;;;0.60;;
45316;SDS011;31053;55.870;37.592;2022-09-03T08:22:23;2.38;;;0.60;;
45316;SDS011;31053;55.870;37.592;2022-09-03T08:25:28;0.95;;;0.73;;
45316;SDS011;31053;55.870;37.592;2022-09-03T08:28:36;3.63;;;0.90;;
45316;SDS011;31053;55.870;37.592;2022-09-03T08:31:41;0.80;;;0.50;;
45316;SDS011;31053;55.870;37.592;2022-09-03T08:34:47;2.60;;;0.90;;
45316;SDS011;31053;55.870;37.592;2022-09-03T08:37:53;3.03;;;0.50;;
45316;SDS011;31053;55.870;37.592;2022-09-03T08:41:05;1.75;;;0.65;;
45316;SDS011;31053;55.870;37.592;2022-09-03T08:50:38;0.50;;;0.40;;
45316;SDS011;31053;55.870;37.592;2022-09-03T08:53:46;2.67;;;0.38;;
45316;SDS011;31053;55.870;37.592;2022-09-03T08:56:59;7.40;;;0.52;;
45316;SDS011;31053;55.870;37.592;2022-09-03T09:13:26;0.85;;;0.38;;
45316;SDS011;31053;55.870;37.592;2022-09-03T09:16:38;2.83;;;0.35;;
45316;SDS011;31053;55.870;37.592;2022-09-03T09:20:03;0.50;;;0.40;;
45316;SDS011;31053;55.870;37.592;2022-09-03T09:23:14;4.07;;;0.65;;
45316;SDS011;31053;55.870;37.592;2022-09-03T09:26:30;0.43;;;0.33;;
45316;SDS011;31053;55.870;37.592;2022-09-03T09:29:36;2.50;;;0.30;;
45316;SDS011;31053;55.870;37.592;2022-09-03T09:32:41;0.20;;;0.20;;
45316;SDS011;31053;55.870;37.592;2022-09-03T09:35:46;3.30;;;0.30;;
45316;SDS011;31053;55.870;37.592;2022-09-03T09:38:52;0.30;;;0.22;;
45316;SDS011;31053;55.870;37.592;2022-09-03T09:41:59;0.90;;;0.30;;
45316;SDS011;31053;55.870;37.592;2022-09-03T09:45:09;0.90;;;0.43;;
45316;SDS011;31053;55.870;37.592;2022-09-03T09:48:16;0.50;;;0.30;;
45316;SDS011;31053;55.870;37.592;2022-09-03T09:51:28;0.85;;;0.40;;
45316;SDS011;31053;55.870;37.592;2022-09-03T09:54:34;2.60;;;0.50;;
45316;SDS011;31053;55.870;37.592;2022-09-03T09:57:39;0.43;;;0.30;;
45316;SDS011;31053;55.870;37.592;2022-09-03T10:00:54;1.77;;;0.40;;
45316;SDS011;31053;55.870;37.592;2022-09-03T10:04:12;0.43;;;0.20;;
45316;SDS011;31053;55.870;37.592;2022-09-03T10:07:28;2.22;;;0.50;;
45316;SDS011;31053;55.870;37.592;2022-09-03T10:10:38;2.63;;;1.17;;
45316;SDS011;31053;55.870;37.592;2022-09-03T10:13:51;1.77;;;0.32;;
45316;SDS011;31053;55.870;37.592;2022-09-03T10:16:59;1.20;;;0.60;;
45316;SDS011;31053;55.870;37.592;2022-09-03T10:23:48;0.68;;;0.28;;
45316;SDS011;31053;55.870;37.592;2022-09-03T10:26:55;0.40;;;0.30;;
45316;SDS011;31053;55.870;37.592;2022-09-03T10:30:01;3.57;;;0.60;;
45316;SDS011;31053;55.870;37.592;2022-09-03T10:33:52;0.60;;;0.38;;
45316;SDS011;31053;55.870;37.592;2022-09-03T10:36:55;0.75;;;0.40;;
45316;SDS011;31053;55.870;37.592;2022-09-03T10:47:31;1.00;;;0.40;;
45316;SDS011;31053;55.870;37.592;2022-09-03T10:51:19;1.10;;;0.55;;
45316;SDS011;31053;55.870;37.592;2022-09-03T11:05:34;6.25;;;0.40;;
45316;SDS011;31053;55.870;37.592;2022-09-03T11:08:47;4.25;;;0.40;;
45316;SDS011;31053;55.870;37.592;2022-09-03T11:12:03;0.55;;;0.43;;
45316;SDS011;31053;55.870;37.592;2022-09-03T11:15:37;1.55;;;0.50;;
45316;SDS011;31053;55.870;37.592;2022-09-03T11:19:11;1.88;;;0.68;;
45316;SDS011;31053;55.870;37.592;2022-09-03T11:22:19;0.63;;;0.30;;
45316;SDS011;31053;55.870;37.592;2022-09-03T11:25:39;0.93;;;0.45;;
45316;SDS011;31053;55.870;37.592;2022-09-03T11:28:58;0.95;;;0.50;;
45316;SDS011;31053;55.870;37.592;2022-09-03T11:32:09;3.58;;;0.35;;
45316;SDS011;31053;55.870;37.592;2022-09-03T11:38:35;6.40;;;0.40;;
45316;SDS011;31053;55.870;37.592;2022-09-03T11:41:43;6.28;;;0.70;;
45316;SDS011;31053;55.870;37.592;2022-09-03T11:45:14;1.15;;;0.32;;
45316;SDS011;31053;55.870;37.592;2022-09-03T11:48:33;1.00;;;0.40;;
45316;SDS011;31053;55.870;37.592;2022-09-03T11:51:41;0.63;;;0.40;;
45316;SDS011;31053;55.870;37.592;2022-09-03T11:54:49;1.00;;;0.50;;
45316;SDS011;31053;55.870;37.592;2022-09-03T11:57:54;1.73;;;0.30;;
45316;SDS011;31053;55.870;37.592;2022-09-03T12:01:00;1.58;;;0.50;;
45316;SDS011;31053;55.870;37.592;2022-09-03T12:04:09;0.30;;;0.30;;
45316;SDS011;31053;55.870;37.592;2022-09-03T12:14:52;8.00;;;0.60;;
45316;SDS011;31053;55.870;37.592;2022-09-03T12:18:12;0.88;;;0.35;;
45316;SDS011;31053;55.870;37.592;2022-09-03T12:21:37;1.55;;;0.25;;
45316;SDS011;31053;55.870;37.592;2022-09-03T12:24:44;2.88;;;0.60;;
45316;SDS011;31053;55.870;37.592;2022-09-03T12:27:51;0.57;;;0.38;;
45316;SDS011;31053;55.870;37.592;2022-09-03T12:31:04;1.60;;;0.65;;
45316;SDS011;31053;55.870;37.592;2022-09-03T12:34:32;2.33;;;0.30;;
45316;SDS011;31053;55.870;37.592;2022-09-03T12:37:37;0.82;;;0.40;;
45316;SDS011;31053;55.870;37.592;2022-09-03T12:40:42;1.40;;;0.70;;
45316;SDS011;31053;55.870;37.592;2022-09-03T12:43:50;1.08;;;0.32;;
45316;SDS011;31053;55.870;37.592;2022-09-03T12:47:00;0.30;;;0.30;;
45316;SDS011;31053;55.870;37.592;2022-09-03T12:50:11;1.17;;;0.30;;
45316;SDS011;31053;55.870;37.592;2022-09-03T12:53:26;0.90;;;0.35;;
45316;SDS011;31053;55.870;37.592;2022-09-03T12:56:32;0.50;;;0.30;;
45316;SDS011;31053;55.870;37.592;2022-09-03T12:59:37;0.13;;;0.10;;
45316;SDS011;31053;55.870;37.592;2022-09-03T13:05:51;0.43;;;0.30;;
45316;SDS011;31053;55.870;37.592;2022-09-03T13:09:02;0.28;;;0.22;;
45316;SDS011;31053;55.870;37.592;2022-09-03T13:12:21;1.42;;;0.30;;
45316;SDS011;31053;55.870;37.592;2022-09-03T13:15:32;1.15;;;0.38;;
45316;SDS011;31053;55.870;37.592;2022-09-03T13:29:28;1.35;;;0.50;;
45316;SDS011;31053;55.870;37.592;2022-09-03T13:32:45;1.52;;;0.50;;
45316;SDS011;31053;55.870;37.592;2022-09-03T13:36:20;3.65;;;0.75;;
45316;SDS011;31053;55.870;37.592;2022-09-03T13:39:29;0.75;;;0.30;;
45316;SDS011;31053;55.870;37.592;2022-09-03T13:42:48;3.50;;;0.50;;
45316;SDS011;31053;55.870;37.592;2022-09-03T13:53:13;1.30;;;0.40;;
45316;SDS011;31053;55.870;37.592;2022-09-03T14:06:24;1.52;;;0.73;;
45316;SDS011;31053;55.870;37.592;2022-09-03T14:09:50;1.05;;;0.60;;
45316;SDS011;31053;55.870;37.592;2022-09-03T14:13:05;3.35;;;0.60;;
45316;SDS011;31053;55.870;37.592;2022-09-03T14:26:04;0.38;;;0.30;;
45316;SDS011;31053;55.870;37.592;2022-09-03T14:35:34;0.93;;;0.60;;
45316;SDS011;31053;55.870;37.592;2022-09-03T14:45:22;0.90;;;0.50;;
45316;SDS011;31053;55.870;37.592;2022-09-03T14:48:39;0.90;;;0.38;;
45316;SDS011;31053;55.870;37.592;2022-09-03T15:06:31;0.38;;;0.20;;
45316;SDS011;31053;55.870;37.592;2022-09-03T15:09:58;1.00;;;0.45;;
45316;SDS011;31053;55.870;37.592;2022-09-03T15:13:28;2.28;;;0.47;;
45316;SDS011;31053;55.870;37.592;2022-09-03T15:16:50;3.00;;;0.50;;
45316;SDS011;31053;55.870;37.592;2022-09-03T15:20:14;2.15;;;0.60;;
45316;SDS011;31053;55.870;37.592;2022-09-03T15:30:16;1.13;;;0.47;;
45316;SDS011;31053;55.870;37.592;2022-09-03T15:36:35;2.00;;;0.80;;
45316;SDS011;31053;55.870;37.592;2022-09-03T15:39:51;2.67;;;0.70;;
45316;SDS011;31053;55.870;37.592;2022-09-03T15:43:29;1.00;;;0.40;;
45316;SDS011;31053;55.870;37.592;2022-09-03T16:00:22;1.58;;;0.68;;
45316;SDS011;31053;55.870;37.592;2022-09-03T16:07:01;2.40;;;0.77;;
45316;SDS011;31053;55.870;37.592;2022-09-03T16:10:45;3.60;;;0.68;;
45316;SDS011;31053;55.870;37.592;2022-09-03T16:14:19;3.72;;;0.90;;
45316;SDS011;31053;55.870;37.592;2022-09-03T16:21:22;1.10;;;0.80;;
45316;SDS011;31053;55.870;37.592;2022-09-03T16:28:09;4.75;;;0.88;;
45316;SDS011;31053;55.870;37.592;2022-09-03T16:38:16;1.35;;;0.60;;
45316;SDS011;31053;55.870;37.592;2022-09-03T16:58:20;4.80;;;1.20;;
45316;SDS011;31053;55.870;37.592;2022-09-03T17:12:07;2.08;;;0.73;;
45316;SDS011;31053;55.870;37.592;2022-09-03T17:15:24;2.92;;;1.50;;
45316;SDS011;31053;55.870;37.592;2022-09-03T17:25:17;3.80;;;1.00;;
45316;SDS011;31053;55.870;37.592;2022-09-03T17:29:01;4.00;;;0.95;;
45316;SDS011;31053;55.870;37.592;2022-09-03T17:32:18;2.13;;;0.70;;
45316;SDS011;31053;55.870;37.592;2022-09-03T17:39:15;4.47;;;0.70;;
45316;SDS011;31053;55.870;37.592;2022-09-03T17:49:29;2.38;;;1.33;;
45316;SDS011;31053;55.870;37.592;2022-09-03T17:55:52;4.45;;;1.50;;
45316;SDS011;31053;55.870;37.592;2022-09-03T17:59:04;2.17;;;0.98;;
45316;SDS011;31053;55.870;37.592;2022-09-03T18:06:02;1.40;;;0.75;;
45316;SDS011;31053;55.870;37.592;2022-09-03T18:09:34;5.07;;;1.40;;
45316;SDS011;31053;55.870;37.592;2022-09-03T18:13:02;3.28;;;1.17;;
45316;SDS011;31053;55.870;37.592;2022-09-03T18:16:30;1.30;;;0.80;;
45316;SDS011;31053;55.870;37.592;2022-09-03T18:19:43;5.07;;;1.23;;
45316;SDS011;31053;55.870;37.592;2022-09-03T18:23:33;14.23;;;1.20;;
45316;SDS011;31053;55.870;37.592;2022-09-03T18:27:04;2.85;;;1.33;;
45316;SDS011;31053;55.870;37.592;2022-09-03T18:30:33;2.35;;;1.50;;
45316;SDS011;31053;55.870;37.592;2022-09-03T18:33:57;5.03;;;1.52;;
45316;SDS011;31053;55.870;37.592;2022-09-03T18:37:21;2.05;;;1.10;;
45316;SDS011;31053;55.870;37.592;2022-09-03T18:48:04;5.47;;;1.00;;
45316;SDS011;31053;55.870;37.592;2022-09-03T18:56:51;2.70;;;1.40;;
45316;SDS011;31053;55.870;37.592;2022-09-03T19:00:15;3.25;;;1.13;;
45316;SDS011;31053;55.870;37.592;2022-09-03T19:04:34;7.78;;;4.05;;
45316;SDS011;31053;55.870;37.592;2022-09-03T19:12:25;8.85;;;2.70;;
45316;SDS011;31053;55.870;37.592;2022-09-03T19:23:11;9.82;;;4.45;;
45316;SDS011;31053;55.870;37.592;2022-09-03T19:26:43;7.07;;;3.90;;
45316;SDS011;31053;55.870;37.592;2022-09-03T19:34:30;5.70;;;4.05;;
45316;SDS011;31053;55.870;37.592;2022-09-03T19:38:20;11.40;;;4.05;;
45316;SDS011;31053;55.870;37.592;2022-09-03T19:53:16;4.78;;;2.55;;
45316;SDS011;31053;55.870;37.592;2022-09-03T19:56:40;8.25;;;1.40;;
45316;SDS011;31053;55.870;37.592;2022-09-03T20:00:06;4.25;;;2.55;;
45316;SDS011;31053;55.870;37.592;2022-09-03T20:03:37;4.88;;;1.83;;
45316;SDS011;31053;55.870;37.592;2022-09-03T20:07:08;4.88;;;1.65;;
45316;SDS011;31053;55.870;37.592;2022-09-03T20:10:32;6.90;;;3.97;;
45316;SDS011;31053;55.870;37.592;2022-09-03T20:13:38;5.60;;;2.50;;
45316;SDS011;31053;55.870;37.592;2022-09-03T20:36:01;4.60;;;1.90;;
45316;SDS011;31053;55.870;37.592;2022-09-03T21:00:16;2.10;;;0.93;;
45316;SDS011;31053;55.870;37.592;2022-09-03T21:16:53;5.70;;;2.13;;
45316;SDS011;31053;55.870;37.592;2022-09-03T21:20:45;4.90;;;2.08;;
45316;SDS011;31053;55.870;37.592;2022-09-03T21:24:19;5.78;;;2.08;;
45316;SDS011;31053;55.870;37.592;2022-09-03T21:32:00;2.13;;;1.20;;
45316;SDS011;31053;55.870;37.592;2022-09-03T21:35:29;1.95;;;1.05;;
45316;SDS011;31053;55.870;37.592;2022-09-03T21:38:52;3.80;;;1.45;;
45316;SDS011;31053;55.870;37.592;2022-09-03T21:42:12;3.08;;;1.38;;
45316;SDS011;31053;55.870;37.592;2022-09-03T21:46:39;5.70;;;1.45;;
45316;SDS011;31053;55.870;37.592;2022-09-03T22:00:47;2.10;;;1.00;;
45316;SDS011;31053;55.870;37.592;2022-09-03T22:04:28;1.88;;;1.17;;
45316;SDS011;31053;55.870;37.592;2022-09-03T22:11:43;2.28;;;1.17;;
45316;SDS011;31053;55.870;37.592;2022-09-03T22:15:11;5.15;;;1.17;;
45316;SDS011;31053;55.870;37.592;2022-09-03T22:18:29;1.65;;;0.85;;
45316;SDS011;31053;55.870;37.592;2022-09-03T22:22:13;2.53;;;1.17;;
45316;SDS011;31053;55.870;37.592;2022-09-03T22:29:11;1.35;;;1.10;;
45316;SDS011;31053;55.870;37.592;2022-09-03T22:42:40;3.72;;;1.27;;
45316;SDS011;31053;55.870;37.592;2022-09-03T22:46:06;4.85;;;0.90;;
45316;SDS011;31053;55.870;37.592;2022-09-03T22:53:13;1.83;;;1.02;;
45316;SDS011;31053;55.870;37.592;2022-09-03T22:57:18;2.05;;;0.90;;
45316;SDS011;31053;55.870;37.592;2022-09-03T23:01:17;1.73;;;1.10;;
45316;SDS011;31053;55.870;37.592;2022-09-03T23:04:48;5.60;;;1.10;;
45316;SDS011;31053;55.870;37.592;2022-09-03T23:11:56;3.25;;;1.02;;
45316;SDS011;31053;55.870;37.592;2022-09-03T23:15:40;2.55;;;0.80;;
45316;SDS011;31053;55.870;37.592;2022-09-03T23:19:02;5.28;;;1.42;;
45316;SDS011;31053;55.870;37.592;2022-09-03T23:29:36;2.72;;;1.65;;
45316;SDS011;31053;55.870;37.592;2022-09-03T23:33:10;3.03;;;1.60;;
45316;SDS011;31053;55.870;37.592;2022-09-03T23:36:17;4.38;;;1.75;;
45316;SDS011;31053;55.870;37.592;2022-09-03T23:46:57;3.58;;;1.50;;
45316;SDS011;31053;55.870;37.592;2022-09-03T23:50:17;4.28;;;1.80;;
45316;SDS011;31053;55.870;37.592;2022-09-03T23:54:05;4.47;;;1.77;;
45316;SDS011;31053;55.870;37.592;2022-09-03T23:57:40;2.90;;;1.40;;
